sensor_id;sensor_type;location;lat;lon;timestamp;temperature;humidity
10437;DHT22;5265;50.006;9.202;2022-08-24T00:00:02;20.70;99.90
10437;DHT22;5265;50.006;9.202;2022-08-24T00:02:31;20.70;99.90
10437;DHT22;5265;50.006;9.202;2022-08-24T00:04:58;20.70;99.90
10437;DHT22;5265;50.006;9.202;2022-08-24T00:07:27;20.70;99.90
10437;DHT22;5265;50.006;9.202;2022-08-24T00:09:54;20.70;99.90
10437;DHT22;5265;50.006;9.202;2022-08-24T00:12:22;20.70;99.90
10437;DHT22;5265;50.006;9.202;2022-08-24T00:14:49;20.70;99.90
10437;DHT22;5265;50.006;9.202;2022-08-24T00:17:16;20.70;99.90
10437;DHT22;5265;50.006;9.202;2022-08-24T00:19:45;20.70;99.90
10437;DHT22;5265;50.006;9.202;2022-08-24T00:22:13;20.70;99.90
10437;DHT22;5265;50.006;9.202;2022-08-24T00:24:41;20.70;99.90
10437;DHT22;5265;50.006;9.202;2022-08-24T00:27:09;20.60;99.90
10437;DHT22;5265;50.006;9.202;2022-08-24T00:29:37;20.60;99.90
10437;DHT22;5265;50.006;9.202;2022-08-24T00:32:04;20.60;99.90
10437;DHT22;5265;50.006;9.202;2022-08-24T00:34:32;20.60;99.90
10437;DHT22;5265;50.006;9.202;2022-08-24T00:36:59;20.60;99.90
10437;DHT22;5265;50.006;9.202;2022-08-24T00:39:26;20.60;99.90
10437;DHT22;5265;50.006;9.202;2022-08-24T00:41:55;20.50;99.90
10437;DHT22;5265;50.006;9.202;2022-08-24T00:44:22;20.50;99.90
10437;DHT22;5265;50.006;9.202;2022-08-24T00:46:51;20.50;99.90
10437;DHT22;5265;50.006;9.202;2022-08-24T00:49:21;20.40;99.90
10437;DHT22;5265;50.006;9.202;2022-08-24T00:51:51;20.40;99.90
10437;DHT22;5265;50.006;9.202;2022-08-24T00:54:21;20.50;99.90
10437;DHT22;5265;50.006;9.202;2022-08-24T00:56:50;20.50;99.90
10437;DHT22;5265;50.006;9.202;2022-08-24T00:59:21;20.40;99.90
10437;DHT22;5265;50.006;9.202;2022-08-24T01:01:49;20.50;99.90
10437;DHT22;5265;50.006;9.202;2022-08-24T01:04:20;20.40;99.90
10437;DHT22;5265;50.006;9.202;2022-08-24T01:06:48;20.40;99.90
10437;DHT22;5265;50.006;9.202;2022-08-24T01:09:15;20.50;99.90
10437;DHT22;5265;50.006;9.202;2022-08-24T01:11:43;20.40;99.90
10437;DHT22;5265;50.006;9.202;2022-08-24T01:14:10;20.40;99.90
10437;DHT22;5265;50.006;9.202;2022-08-24T01:16:38;20.40;99.90
10437;DHT22;5265;50.006;9.202;2022-08-24T01:19:27;20.40;99.90
10437;DHT22;5265;50.006;9.202;2022-08-24T01:22:00;20.40;99.90
10437;DHT22;5265;50.006;9.202;2022-08-24T01:24:34;20.40;99.90
10437;DHT22;5265;50.006;9.202;2022-08-24T01:27:02;20.40;99.90
10437;DHT22;5265;50.006;9.202;2022-08-24T01:29:30;20.30;99.90
10437;DHT22;5265;50.006;9.202;2022-08-24T01:31:57;20.20;99.90
10437;DHT22;5265;50.006;9.202;2022-08-24T01:34:24;20.20;99.90
10437;DHT22;5265;50.006;9.202;2022-08-24T01:36:52;20.20;99.90
10437;DHT22;5265;50.006;9.202;2022-08-24T01:39:22;20.10;99.90
10437;DHT22;5265;50.006;9.202;2022-08-24T01:41:51;20.10;99.90
10437;DHT22;5265;50.006;9.202;2022-08-24T01:44:19;20.10;99.90
10437;DHT22;5265;50.006;9.202;2022-08-24T01:46:47;20.10;99.90
10437;DHT22;5265;50.006;9.202;2022-08-24T01:49:15;20.00;99.90
10437;DHT22;5265;50.006;9.202;2022-08-24T01:51:42;20.00;99.90
10437;DHT22;5265;50.006;9.202;2022-08-24T01:54:11;20.00;99.90
10437;DHT22;5265;50.006;9.202;2022-08-24T01:56:39;19.90;99.90
10437;DHT22;5265;50.006;9.202;2022-08-24T01:59:07;19.90;99.90
10437;DHT22;5265;50.006;9.202;2022-08-24T02:01:36;19.90;99.90
10437;DHT22;5265;50.006;9.202;2022-08-24T02:04:05;19.80;99.90
10437;DHT22;5265;50.006;9.202;2022-08-24T02:06:33;19.90;99.90
10437;DHT22;5265;50.006;9.202;2022-08-24T02:09:00;19.90;99.90
10437;DHT22;5265;50.006;9.202;2022-08-24T02:11:30;19.90;99.90
10437;DHT22;5265;50.006;9.202;2022-08-24T02:13:58;19.90;99.90
10437;DHT22;5265;50.006;9.202;2022-08-24T02:16:27;19.90;99.90
10437;DHT22;5265;50.006;9.202;2022-08-24T02:18:53;19.90;99.90
10437;DHT22;5265;50.006;9.202;2022-08-24T02:21:21;19.80;99.90
10437;DHT22;5265;50.006;9.202;2022-08-24T02:23:48;19.80;99.90
10437;DHT22;5265;50.006;9.202;2022-08-24T02:26:16;19.80;99.90
10437;DHT22;5265;50.006;9.202;2022-08-24T02:28:43;19.70;99.90
10437;DHT22;5265;50.006;9.202;2022-08-24T02:31:11;19.70;99.90
10437;DHT22;5265;50.006;9.202;2022-08-24T02:33:40;19.70;99.90
10437;DHT22;5265;50.006;9.202;2022-08-24T02:36:08;19.70;99.90
10437;DHT22;5265;50.006;9.202;2022-08-24T02:38:36;19.70;99.90
10437;DHT22;5265;50.006;9.202;2022-08-24T02:41:09;19.70;99.90
10437;DHT22;5265;50.006;9.202;2022-08-24T02:43:36;19.70;99.90
10437;DHT22;5265;50.006;9.202;2022-08-24T02:46:03;19.60;99.90
10437;DHT22;5265;50.006;9.202;2022-08-24T02:48:31;19.60;99.90
10437;DHT22;5265;50.006;9.202;2022-08-24T02:51:00;19.50;99.90
10437;DHT22;5265;50.006;9.202;2022-08-24T02:53:27;19.50;99.90
10437;DHT22;5265;50.006;9.202;2022-08-24T02:55:54;19.50;99.90
10437;DHT22;5265;50.006;9.202;2022-08-24T02:58:21;19.60;99.90
10437;DHT22;5265;50.006;9.202;2022-08-24T03:00:49;19.50;99.90
10437;DHT22;5265;50.006;9.202;2022-08-24T03:03:19;19.50;99.90
10437;DHT22;5265;50.006;9.202;2022-08-24T03:05:46;19.50;99.90
10437;DHT22;5265;50.006;9.202;2022-08-24T03:08:15;19.40;99.90
10437;DHT22;5265;50.006;9.202;2022-08-24T03:10:43;19.40;99.90
10437;DHT22;5265;50.006;9.202;2022-08-24T03:13:11;19.40;99.90
10437;DHT22;5265;50.006;9.202;2022-08-24T03:15:38;19.40;99.90
10437;DHT22;5265;50.006;9.202;2022-08-24T03:18:05;19.40;99.90
10437;DHT22;5265;50.006;9.202;2022-08-24T03:20:32;19.40;99.90
10437;DHT22;5265;50.006;9.202;2022-08-24T03:23:00;19.30;99.90
10437;DHT22;5265;50.006;9.202;2022-08-24T03:25:29;19.30;99.90
10437;DHT22;5265;50.006;9.202;2022-08-24T03:27:56;19.30;99.90
10437;DHT22;5265;50.006;9.202;2022-08-24T03:30:24;19.30;99.90
10437;DHT22;5265;50.006;9.202;2022-08-24T03:32:51;19.30;99.90
10437;DHT22;5265;50.006;9.202;2022-08-24T03:35:19;19.30;99.90
10437;DHT22;5265;50.006;9.202;2022-08-24T03:37:48;19.20;99.90
10437;DHT22;5265;50.006;9.202;2022-08-24T03:40:15;19.20;99.90
10437;DHT22;5265;50.006;9.202;2022-08-24T03:42:44;19.20;99.90
10437;DHT22;5265;50.006;9.202;2022-08-24T03:45:11;19.20;99.90
10437;DHT22;5265;50.006;9.202;2022-08-24T03:47:38;19.20;99.90
10437;DHT22;5265;50.006;9.202;2022-08-24T03:50:06;19.20;99.90
10437;DHT22;5265;50.006;9.202;2022-08-24T03:52:34;19.20;99.90
10437;DHT22;5265;50.006;9.202;2022-08-24T03:55:01;19.10;99.90
10437;DHT22;5265;50.006;9.202;2022-08-24T03:57:29;18.90;99.90
10437;DHT22;5265;50.006;9.202;2022-08-24T03:59:58;18.70;99.90
10437;DHT22;5265;50.006;9.202;2022-08-24T04:02:25;18.50;99.90
10437;DHT22;5265;50.006;9.202;2022-08-24T04:04:53;18.40;99.90
10437;DHT22;5265;50.006;9.202;2022-08-24T04:07:21;18.20;99.90
10437;DHT22;5265;50.006;9.202;2022-08-24T04:09:48;18.10;99.90
10437;DHT22;5265;50.006;9.202;2022-08-24T04:12:15;18.00;99.90
10437;DHT22;5265;50.006;9.202;2022-08-24T04:14:43;17.90;99.90
10437;DHT22;5265;50.006;9.202;2022-08-24T04:17:15;17.90;99.90
10437;DHT22;5265;50.006;9.202;2022-08-24T04:19:45;18.00;99.90
10437;DHT22;5265;50.006;9.202;2022-08-24T04:22:26;17.90;99.90
10437;DHT22;5265;50.006;9.202;2022-08-24T04:24:54;17.90;99.90
10437;DHT22;5265;50.006;9.202;2022-08-24T04:27:21;17.80;99.90
10437;DHT22;5265;50.006;9.202;2022-08-24T04:29:49;17.90;99.90
10437;DHT22;5265;50.006;9.202;2022-08-24T04:32:17;17.90;99.90
10437;DHT22;5265;50.006;9.202;2022-08-24T04:34:45;17.90;99.90
10437;DHT22;5265;50.006;9.202;2022-08-24T04:37:14;17.80;99.90
10437;DHT22;5265;50.006;9.202;2022-08-24T04:39:42;17.70;99.90
10437;DHT22;5265;50.006;9.202;2022-08-24T04:42:18;17.70;99.90
10437;DHT22;5265;50.006;9.202;2022-08-24T04:44:45;17.60;99.90
10437;DHT22;5265;50.006;9.202;2022-08-24T04:47:13;17.60;99.90
10437;DHT22;5265;50.006;9.202;2022-08-24T04:49:42;17.70;99.90
10437;DHT22;5265;50.006;9.202;2022-08-24T04:52:09;17.70;99.90
10437;DHT22;5265;50.006;9.202;2022-08-24T04:54:39;17.60;99.90
10437;DHT22;5265;50.006;9.202;2022-08-24T04:57:15;17.60;99.90
10437;DHT22;5265;50.006;9.202;2022-08-24T04:59:43;17.50;99.90
10437;DHT22;5265;50.006;9.202;2022-08-24T05:02:10;17.50;99.90
10437;DHT22;5265;50.006;9.202;2022-08-24T05:04:37;17.50;99.90
10437;DHT22;5265;50.006;9.202;2022-08-24T05:07:07;17.50;99.90
10437;DHT22;5265;50.006;9.202;2022-08-24T05:09:39;17.50;99.90
10437;DHT22;5265;50.006;9.202;2022-08-24T05:12:06;17.50;99.90
10437;DHT22;5265;50.006;9.202;2022-08-24T05:14:37;17.60;99.90
10437;DHT22;5265;50.006;9.202;2022-08-24T05:17:05;17.60;99.90
10437;DHT22;5265;50.006;9.202;2022-08-24T05:19:32;17.60;99.90
10437;DHT22;5265;50.006;9.202;2022-08-24T05:21:59;17.60;99.90
10437;DHT22;5265;50.006;9.202;2022-08-24T05:24:29;17.60;99.90
10437;DHT22;5265;50.006;9.202;2022-08-24T05:26:57;17.60;99.90
10437;DHT22;5265;50.006;9.202;2022-08-24T05:29:25;17.70;99.90
10437;DHT22;5265;50.006;9.202;2022-08-24T05:31:53;17.70;99.90
10437;DHT22;5265;50.006;9.202;2022-08-24T05:34:20;17.80;99.90
10437;DHT22;5265;50.006;9.202;2022-08-24T05:36:49;17.80;99.90
10437;DHT22;5265;50.006;9.202;2022-08-24T05:39:27;18.00;99.90
10437;DHT22;5265;50.006;9.202;2022-08-24T05:41:57;18.00;99.90
10437;DHT22;5265;50.006;9.202;2022-08-24T05:44:28;18.10;99.90
10437;DHT22;5265;50.006;9.202;2022-08-24T05:46:58;18.30;99.90
10437;DHT22;5265;50.006;9.202;2022-08-24T05:49:26;18.30;99.90
10437;DHT22;5265;50.006;9.202;2022-08-24T05:51:53;18.50;99.90
10437;DHT22;5265;50.006;9.202;2022-08-24T05:54:21;18.60;99.90
10437;DHT22;5265;50.006;9.202;2022-08-24T05:57:01;18.70;99.90
10437;DHT22;5265;50.006;9.202;2022-08-24T05:59:33;18.90;99.90
10437;DHT22;5265;50.006;9.202;2022-08-24T06:02:07;19.00;99.90
10437;DHT22;5265;50.006;9.202;2022-08-24T06:04:34;19.10;99.90
10437;DHT22;5265;50.006;9.202;2022-08-24T06:07:04;19.20;99.90
10437;DHT22;5265;50.006;9.202;2022-08-24T06:09:35;19.40;99.90
10437;DHT22;5265;50.006;9.202;2022-08-24T06:12:04;19.50;99.90
10437;DHT22;5265;50.006;9.202;2022-08-24T06:14:32;19.60;99.90
10437;DHT22;5265;50.006;9.202;2022-08-24T06:17:02;19.60;99.90
10437;DHT22;5265;50.006;9.202;2022-08-24T06:19:29;19.80;99.90
10437;DHT22;5265;50.006;9.202;2022-08-24T06:21:57;19.80;99.90
10437;DHT22;5265;50.006;9.202;2022-08-24T06:24:28;20.00;99.90
10437;DHT22;5265;50.006;9.202;2022-08-24T06:27:17;20.00;99.90
10437;DHT22;5265;50.006;9.202;2022-08-24T06:29:48;20.20;99.90
10437;DHT22;5265;50.006;9.202;2022-08-24T06:32:32;20.30;99.90
10437;DHT22;5265;50.006;9.202;2022-08-24T06:34:59;20.40;99.90
10437;DHT22;5265;50.006;9.202;2022-08-24T06:37:27;20.50;99.90
10437;DHT22;5265;50.006;9.202;2022-08-24T06:39:55;20.60;99.90
10437;DHT22;5265;50.006;9.202;2022-08-24T06:42:24;20.80;99.90
10437;DHT22;5265;50.006;9.202;2022-08-24T06:44:58;20.80;99.90
10437;DHT22;5265;50.006;9.202;2022-08-24T06:47:25;21.00;99.90
10437;DHT22;5265;50.006;9.202;2022-08-24T06:49:57;21.10;99.90
10437;DHT22;5265;50.006;9.202;2022-08-24T06:52:26;21.20;99.90
10437;DHT22;5265;50.006;9.202;2022-08-24T06:54:54;21.30;99.90
10437;DHT22;5265;50.006;9.202;2022-08-24T06:57:22;21.40;99.90
10437;DHT22;5265;50.006;9.202;2022-08-24T06:59:52;21.60;99.90
10437;DHT22;5265;50.006;9.202;2022-08-24T07:02:19;21.70;99.90
10437;DHT22;5265;50.006;9.202;2022-08-24T07:04:47;21.80;99.90
10437;DHT22;5265;50.006;9.202;2022-08-24T07:07:33;22.00;99.90
10437;DHT22;5265;50.006;9.202;2022-08-24T07:10:00;22.00;99.90
10437;DHT22;5265;50.006;9.202;2022-08-24T07:12:27;22.10;99.90
10437;DHT22;5265;50.006;9.202;2022-08-24T07:14:56;22.20;99.90
10437;DHT22;5265;50.006;9.202;2022-08-24T07:17:24;22.40;99.90
10437;DHT22;5265;50.006;9.202;2022-08-24T07:19:51;22.40;99.90
10437;DHT22;5265;50.006;9.202;2022-08-24T07:22:38;22.50;99.90
10437;DHT22;5265;50.006;9.202;2022-08-24T07:25:06;22.60;99.90
10437;DHT22;5265;50.006;9.202;2022-08-24T07:27:34;22.70;99.90
10437;DHT22;5265;50.006;9.202;2022-08-24T07:30:04;22.80;99.90
10437;DHT22;5265;50.006;9.202;2022-08-24T07:32:34;22.80;99.90
10437;DHT22;5265;50.006;9.202;2022-08-24T07:35:01;23.00;99.90
10437;DHT22;5265;50.006;9.202;2022-08-24T07:37:29;23.10;99.90
10437;DHT22;5265;50.006;9.202;2022-08-24T07:39:56;23.20;99.90
10437;DHT22;5265;50.006;9.202;2022-08-24T07:42:24;23.30;99.90
10437;DHT22;5265;50.006;9.202;2022-08-24T07:44:51;23.40;99.90
10437;DHT22;5265;50.006;9.202;2022-08-24T07:47:20;23.50;99.90
10437;DHT22;5265;50.006;9.202;2022-08-24T07:49:49;23.70;99.90
10437;DHT22;5265;50.006;9.202;2022-08-24T07:52:16;23.80;99.90
10437;DHT22;5265;50.006;9.202;2022-08-24T07:54:43;23.80;99.90
10437;DHT22;5265;50.006;9.202;2022-08-24T07:57:11;23.90;99.90
10437;DHT22;5265;50.006;9.202;2022-08-24T07:59:39;24.10;99.90
10437;DHT22;5265;50.006;9.202;2022-08-24T08:02:06;24.10;99.90
10437;DHT22;5265;50.006;9.202;2022-08-24T08:04:37;24.30;99.90
10437;DHT22;5265;50.006;9.202;2022-08-24T08:07:05;24.40;99.90
10437;DHT22;5265;50.006;9.202;2022-08-24T08:09:35;24.60;99.90
10437;DHT22;5265;50.006;9.202;2022-08-24T08:12:02;24.70;99.90
10437;DHT22;5265;50.006;9.202;2022-08-24T08:14:32;24.90;99.90
10437;DHT22;5265;50.006;9.202;2022-08-24T08:17:00;25.00;99.90
10437;DHT22;5265;50.006;9.202;2022-08-24T08:19:28;25.20;99.90
10437;DHT22;5265;50.006;9.202;2022-08-24T08:21:57;25.30;99.90
10437;DHT22;5265;50.006;9.202;2022-08-24T08:25:02;25.30;99.90
10437;DHT22;5265;50.006;9.202;2022-08-24T08:27:30;25.40;99.90
10437;DHT22;5265;50.006;9.202;2022-08-24T08:29:57;25.60;99.90
10437;DHT22;5265;50.006;9.202;2022-08-24T08:32:25;25.70;99.90
10437;DHT22;5265;50.006;9.202;2022-08-24T08:34:52;25.80;99.90
10437;DHT22;5265;50.006;9.202;2022-08-24T08:37:21;25.90;99.90
10437;DHT22;5265;50.006;9.202;2022-08-24T08:39:49;26.00;99.90
10437;DHT22;5265;50.006;9.202;2022-08-24T08:42:26;26.10;99.90
10437;DHT22;5265;50.006;9.202;2022-08-24T08:45:09;26.20;99.90
10437;DHT22;5265;50.006;9.202;2022-08-24T08:47:44;26.30;99.90
10437;DHT22;5265;50.006;9.202;2022-08-24T08:50:20;26.40;99.90
10437;DHT22;5265;50.006;9.202;2022-08-24T08:53:01;26.50;99.90
10437;DHT22;5265;50.006;9.202;2022-08-24T08:55:35;26.60;99.90
10437;DHT22;5265;50.006;9.202;2022-08-24T08:58:11;26.60;99.90
10437;DHT22;5265;50.006;9.202;2022-08-24T09:00:46;26.70;99.90
10437;DHT22;5265;50.006;9.202;2022-08-24T09:06:39;26.90;99.90
10437;DHT22;5265;50.006;9.202;2022-08-24T09:09:19;27.10;99.90
10437;DHT22;5265;50.006;9.202;2022-08-24T09:11:54;27.20;99.80
10437;DHT22;5265;50.006;9.202;2022-08-24T09:14:32;27.20;99.90
10437;DHT22;5265;50.006;9.202;2022-08-24T09:17:04;27.30;99.40
10437;DHT22;5265;50.006;9.202;2022-08-24T09:19:39;27.20;99.40
10437;DHT22;5265;50.006;9.202;2022-08-24T09:22:10;27.30;98.90
10437;DHT22;5265;50.006;9.202;2022-08-24T09:30:20;27.40;99.10
10437;DHT22;5265;50.006;9.202;2022-08-24T09:32:58;27.40;98.80
10437;DHT22;5265;50.006;9.202;2022-08-24T09:35:31;27.60;98.90
10437;DHT22;5265;50.006;9.202;2022-08-24T09:37:59;27.70;98.50
10437;DHT22;5265;50.006;9.202;2022-08-24T09:40:33;27.80;98.50
10437;DHT22;5265;50.006;9.202;2022-08-24T09:46:05;27.90;98.20
10437;DHT22;5265;50.006;9.202;2022-08-24T09:48:44;27.90;97.40
10437;DHT22;5265;50.006;9.202;2022-08-24T09:51:26;28.00;97.50
10437;DHT22;5265;50.006;9.202;2022-08-24T09:56:45;28.20;97.00
10437;DHT22;5265;50.006;9.202;2022-08-24T09:59:23;28.20;96.30
10437;DHT22;5265;50.006;9.202;2022-08-24T10:01:56;28.20;95.50
10437;DHT22;5265;50.006;9.202;2022-08-24T10:04:28;28.40;95.20
10437;DHT22;5265;50.006;9.202;2022-08-24T10:07:01;28.40;94.70
10437;DHT22;5265;50.006;9.202;2022-08-24T10:09:52;28.60;94.60
10437;DHT22;5265;50.006;9.202;2022-08-24T10:12:27;28.60;94.90
10437;DHT22;5265;50.006;9.202;2022-08-24T10:14:57;28.80;93.90
10437;DHT22;5265;50.006;9.202;2022-08-24T10:17:32;28.90;93.40
10437;DHT22;5265;50.006;9.202;2022-08-24T10:20:06;28.90;93.30
10437;DHT22;5265;50.006;9.202;2022-08-24T10:22:44;29.00;93.40
10437;DHT22;5265;50.006;9.202;2022-08-24T10:25:20;29.20;93.10
10437;DHT22;5265;50.006;9.202;2022-08-24T10:27:54;29.20;93.00
10437;DHT22;5265;50.006;9.202;2022-08-24T10:33:16;29.20;93.20
10437;DHT22;5265;50.006;9.202;2022-08-24T10:35:51;29.20;92.90
10437;DHT22;5265;50.006;9.202;2022-08-24T10:38:22;29.30;93.00
10437;DHT22;5265;50.006;9.202;2022-08-24T10:41:17;29.40;92.50
10437;DHT22;5265;50.006;9.202;2022-08-24T10:43:56;29.40;92.00
10437;DHT22;5265;50.006;9.202;2022-08-24T10:46:34;29.50;92.10
10437;DHT22;5265;50.006;9.202;2022-08-24T10:49:45;29.50;92.10
10437;DHT22;5265;50.006;9.202;2022-08-24T10:52:18;29.60;92.40
10437;DHT22;5265;50.006;9.202;2022-08-24T10:54:49;29.80;92.50
10437;DHT22;5265;50.006;9.202;2022-08-24T10:57:18;29.90;92.60
10437;DHT22;5265;50.006;9.202;2022-08-24T10:59:49;30.00;92.40
10437;DHT22;5265;50.006;9.202;2022-08-24T11:02:27;29.90;92.30
10437;DHT22;5265;50.006;9.202;2022-08-24T11:04:57;30.00;92.10
10437;DHT22;5265;50.006;9.202;2022-08-24T11:07:25;30.00;92.10
10437;DHT22;5265;50.006;9.202;2022-08-24T11:09:53;30.10;92.10
10437;DHT22;5265;50.006;9.202;2022-08-24T11:12:23;30.10;92.10
10437;DHT22;5265;50.006;9.202;2022-08-24T11:14:51;30.20;92.10
10437;DHT22;5265;50.006;9.202;2022-08-24T11:17:19;30.20;92.20
10437;DHT22;5265;50.006;9.202;2022-08-24T11:19:46;30.10;92.00
10437;DHT22;5265;50.006;9.202;2022-08-24T11:22:25;30.30;92.00
10437;DHT22;5265;50.006;9.202;2022-08-24T11:24:54;30.30;91.90
10437;DHT22;5265;50.006;9.202;2022-08-24T11:27:25;30.40;91.80
10437;DHT22;5265;50.006;9.202;2022-08-24T11:29:56;30.40;91.70
10437;DHT22;5265;50.006;9.202;2022-08-24T11:32:24;30.50;91.60
10437;DHT22;5265;50.006;9.202;2022-08-24T11:34:52;30.60;91.30
10437;DHT22;5265;50.006;9.202;2022-08-24T11:37:21;30.70;91.30
10437;DHT22;5265;50.006;9.202;2022-08-24T11:39:50;30.60;91.30
10437;DHT22;5265;50.006;9.202;2022-08-24T11:42:20;30.70;91.60
10437;DHT22;5265;50.006;9.202;2022-08-24T11:44:54;30.50;91.10
10437;DHT22;5265;50.006;9.202;2022-08-24T11:47:39;30.60;91.10
10437;DHT22;5265;50.006;9.202;2022-08-24T11:50:16;30.70;90.90
10437;DHT22;5265;50.006;9.202;2022-08-24T11:52:47;30.60;90.70
10437;DHT22;5265;50.006;9.202;2022-08-24T11:55:18;30.80;91.10
10437;DHT22;5265;50.006;9.202;2022-08-24T11:57:50;30.90;90.60
10437;DHT22;5265;50.006;9.202;2022-08-24T12:00:19;31.10;90.80
10437;DHT22;5265;50.006;9.202;2022-08-24T12:02:49;31.20;90.60
10437;DHT22;5265;50.006;9.202;2022-08-24T12:05:22;31.30;89.90
10437;DHT22;5265;50.006;9.202;2022-08-24T12:07:52;31.10;90.10
10437;DHT22;5265;50.006;9.202;2022-08-24T12:10:27;31.20;90.30
10437;DHT22;5265;50.006;9.202;2022-08-24T12:13:00;30.90;89.40
10437;DHT22;5265;50.006;9.202;2022-08-24T12:15:35;30.70;89.10
10437;DHT22;5265;50.006;9.202;2022-08-24T12:18:05;30.60;89.30
10437;DHT22;5265;50.006;9.202;2022-08-24T12:20:36;30.90;90.00
10437;DHT22;5265;50.006;9.202;2022-08-24T12:23:08;31.20;88.50
10437;DHT22;5265;50.006;9.202;2022-08-24T12:25:38;31.40;87.60
10437;DHT22;5265;50.006;9.202;2022-08-24T12:28:24;31.60;87.10
10437;DHT22;5265;50.006;9.202;2022-08-24T12:30:53;31.80;86.70
10437;DHT22;5265;50.006;9.202;2022-08-24T12:33:24;31.80;86.20
10437;DHT22;5265;50.006;9.202;2022-08-24T12:35:54;32.10;87.10
10437;DHT22;5265;50.006;9.202;2022-08-24T12:38:23;32.30;85.20
10437;DHT22;5265;50.006;9.202;2022-08-24T12:40:54;32.60;85.40
10437;DHT22;5265;50.006;9.202;2022-08-24T12:43:23;32.50;86.60
10437;DHT22;5265;50.006;9.202;2022-08-24T12:45:53;32.20;85.90
10437;DHT22;5265;50.006;9.202;2022-08-24T12:48:22;32.00;85.70
10437;DHT22;5265;50.006;9.202;2022-08-24T12:50:54;31.90;85.50
10437;DHT22;5265;50.006;9.202;2022-08-24T12:53:33;32.20;84.20
10437;DHT22;5265;50.006;9.202;2022-08-24T12:58:49;32.60;83.00
10437;DHT22;5265;50.006;9.202;2022-08-24T13:01:18;32.60;82.70
10437;DHT22;5265;50.006;9.202;2022-08-24T13:03:46;32.60;82.40
10437;DHT22;5265;50.006;9.202;2022-08-24T13:06:16;32.70;83.90
10437;DHT22;5265;50.006;9.202;2022-08-24T13:08:45;32.40;85.20
10437;DHT22;5265;50.006;9.202;2022-08-24T13:11:14;32.30;84.60
10437;DHT22;5265;50.006;9.202;2022-08-24T13:13:43;32.40;83.20
10437;DHT22;5265;50.006;9.202;2022-08-24T13:16:42;32.50;83.30
10437;DHT22;5265;50.006;9.202;2022-08-24T13:19:12;32.60;84.00
10437;DHT22;5265;50.006;9.202;2022-08-24T13:21:42;32.60;83.60
10437;DHT22;5265;50.006;9.202;2022-08-24T13:26:56;32.70;83.80
10437;DHT22;5265;50.006;9.202;2022-08-24T13:29:23;32.80;83.10
10437;DHT22;5265;50.006;9.202;2022-08-24T13:31:53;32.90;83.60
10437;DHT22;5265;50.006;9.202;2022-08-24T13:34:34;33.00;83.40
10437;DHT22;5265;50.006;9.202;2022-08-24T13:37:09;33.00;84.10
10437;DHT22;5265;50.006;9.202;2022-08-24T13:39:48;33.00;83.50
10437;DHT22;5265;50.006;9.202;2022-08-24T13:42:37;32.90;83.70
10437;DHT22;5265;50.006;9.202;2022-08-24T13:47:56;33.10;82.80
10437;DHT22;5265;50.006;9.202;2022-08-24T13:50:31;33.10;83.10
10437;DHT22;5265;50.006;9.202;2022-08-24T13:53:05;33.20;82.00
10437;DHT22;5265;50.006;9.202;2022-08-24T13:55:39;33.30;81.80
10437;DHT22;5265;50.006;9.202;2022-08-24T13:58:17;33.30;83.50
10437;DHT22;5265;50.006;9.202;2022-08-24T14:00:47;33.40;82.40
10437;DHT22;5265;50.006;9.202;2022-08-24T14:06:02;33.50;82.80
10437;DHT22;5265;50.006;9.202;2022-08-24T14:08:39;33.50;81.00
10437;DHT22;5265;50.006;9.202;2022-08-24T14:11:12;33.70;81.30
10437;DHT22;5265;50.006;9.202;2022-08-24T14:13:44;33.70;80.30
10437;DHT22;5265;50.006;9.202;2022-08-24T14:16:21;33.50;81.30
10437;DHT22;5265;50.006;9.202;2022-08-24T14:19:08;33.40;80.00
10437;DHT22;5265;50.006;9.202;2022-08-24T14:21:41;33.60;80.90
10437;DHT22;5265;50.006;9.202;2022-08-24T14:24:11;33.80;80.60
10437;DHT22;5265;50.006;9.202;2022-08-24T14:29:30;34.30;79.80
10437;DHT22;5265;50.006;9.202;2022-08-24T14:37:49;34.70;77.60
10437;DHT22;5265;50.006;9.202;2022-08-24T14:40:19;34.70;77.10
10437;DHT22;5265;50.006;9.202;2022-08-24T14:42:52;34.60;77.80
10437;DHT22;5265;50.006;9.202;2022-08-24T14:45:21;34.70;77.00
10437;DHT22;5265;50.006;9.202;2022-08-24T14:47:54;34.90;76.50
10437;DHT22;5265;50.006;9.202;2022-08-24T14:50:27;35.00;77.40
10437;DHT22;5265;50.006;9.202;2022-08-24T14:53:00;35.20;76.80
10437;DHT22;5265;50.006;9.202;2022-08-24T14:55:35;35.50;76.80
10437;DHT22;5265;50.006;9.202;2022-08-24T14:58:16;35.60;76.00
10437;DHT22;5265;50.006;9.202;2022-08-24T15:00:47;35.70;75.40
10437;DHT22;5265;50.006;9.202;2022-08-24T15:03:21;35.50;75.00
10437;DHT22;5265;50.006;9.202;2022-08-24T15:05:59;35.50;74.60
10437;DHT22;5265;50.006;9.202;2022-08-24T15:08:29;35.60;74.00
10437;DHT22;5265;50.006;9.202;2022-08-24T15:11:00;35.30;74.00
10437;DHT22;5265;50.006;9.202;2022-08-24T15:13:30;35.30;73.00
10437;DHT22;5265;50.006;9.202;2022-08-24T15:15:59;35.10;72.90
10437;DHT22;5265;50.006;9.202;2022-08-24T15:18:28;35.20;74.10
10437;DHT22;5265;50.006;9.202;2022-08-24T15:21:01;35.20;72.80
10437;DHT22;5265;50.006;9.202;2022-08-24T15:23:36;35.30;73.60
10437;DHT22;5265;50.006;9.202;2022-08-24T15:26:06;35.20;73.30
10437;DHT22;5265;50.006;9.202;2022-08-24T15:28:34;35.00;73.00
10437;DHT22;5265;50.006;9.202;2022-08-24T15:31:04;35.50;73.50
10437;DHT22;5265;50.006;9.202;2022-08-24T15:33:32;35.90;73.30
10437;DHT22;5265;50.006;9.202;2022-08-24T15:36:06;36.20;71.30
10437;DHT22;5265;50.006;9.202;2022-08-24T15:38:35;36.40;71.80
10437;DHT22;5265;50.006;9.202;2022-08-24T15:41:04;36.60;70.30
10437;DHT22;5265;50.006;9.202;2022-08-24T15:43:31;36.40;70.60
10437;DHT22;5265;50.006;9.202;2022-08-24T15:45:59;36.20;70.10
10437;DHT22;5265;50.006;9.202;2022-08-24T15:48:26;35.80;71.10
10437;DHT22;5265;50.006;9.202;2022-08-24T15:50:54;35.70;71.30
10437;DHT22;5265;50.006;9.202;2022-08-24T15:53:27;35.50;71.70
10437;DHT22;5265;50.006;9.202;2022-08-24T15:55:56;35.40;72.10
10437;DHT22;5265;50.006;9.202;2022-08-24T15:58:29;35.30;71.40
10437;DHT22;5265;50.006;9.202;2022-08-24T16:00:58;35.10;71.90
10437;DHT22;5265;50.006;9.202;2022-08-24T16:03:47;34.60;71.30
10437;DHT22;5265;50.006;9.202;2022-08-24T16:06:16;34.60;71.90
10437;DHT22;5265;50.006;9.202;2022-08-24T16:08:49;34.50;71.60
10437;DHT22;5265;50.006;9.202;2022-08-24T16:11:27;34.80;72.30
10437;DHT22;5265;50.006;9.202;2022-08-24T16:13:55;35.10;71.80
10437;DHT22;5265;50.006;9.202;2022-08-24T16:16:29;35.10;71.60
10437;DHT22;5265;50.006;9.202;2022-08-24T16:18:57;35.00;71.60
10437;DHT22;5265;50.006;9.202;2022-08-24T16:21:27;34.80;71.70
10437;DHT22;5265;50.006;9.202;2022-08-24T16:23:57;34.60;71.90
10437;DHT22;5265;50.006;9.202;2022-08-24T16:26:27;34.50;71.70
10437;DHT22;5265;50.006;9.202;2022-08-24T16:28:56;34.50;71.90
10437;DHT22;5265;50.006;9.202;2022-08-24T16:31:43;34.40;73.30
10437;DHT22;5265;50.006;9.202;2022-08-24T16:34:15;34.20;74.50
10437;DHT22;5265;50.006;9.202;2022-08-24T16:36:43;34.10;76.00
10437;DHT22;5265;50.006;9.202;2022-08-24T16:39:10;33.70;76.30
10437;DHT22;5265;50.006;9.202;2022-08-24T16:41:39;33.60;78.50
10437;DHT22;5265;50.006;9.202;2022-08-24T16:44:07;33.50;78.90